Airfield :







YOU CAN JOIN US ON...

 
LOGIN :

Register | Disclaimer

   EN    FR    IT 

 









Legend :    VFR   Marginal VFR   IFR   Intensive IFR   Very Intensive IFR
Visi :
Ceiling :
>= 8 km
>= 3000ft
5 to 8 km
1000 to 3000 ft
1500m to 5 km
500 to 1000 ft
800 to 1500m
200 to 500 ft
< 800m
< 200 ft
Symbols :   Thunderstorms  Fog  Heavy snow  Heavy precipitations  Wind > 20 kt






- Airport Elevation : 461 ft
- IATA code : YYT


CYYT - St John's Int

CURRENT METAR :
  • 180700Z 32006KT 15SM FEW008 FEW030 M05/M05 A2992 RMK SF1SC1 SC TR SLP142

EXPIRED METARs :
  • 180600Z 32011KT 15SM FEW008 M03/M04 A2991 RMK SF2 SLP138
  • 180500Z 34012KT 15SM BKN008 M03/M04 A2991 RMK SF7 SLP135

TAF TAF CYYT
Valid from the 18 at 06:00 until the 19 at 06:00 UTC


180538Z 1806/1906 34012KT P6SM BKN008
TEMPO 1806/1808 FEW008
FM180800 33012KT P6SM SKC
FM181000 33012G22KT P6SM -SN OVC025
TEMPO 1810/1816 2SM -SN OVC015
BECMG 1811/1813 29015G25KT
FM181600 32015G25KT P6SM BKN030
TEMPO 1816/1818 5SM -SHSN BKN020
FM181800 32012G22KT P6SM SCT030
BECMG 1822/1824 29010KT
BECMG 1904/1906 19008KT RMK NXT FCST BY 181200Z



MET'MAP, your aeronautical weather chart ! - Copyright ORBIFLY December 2007 - Disclaimer

ORBIFLY MET'MAP TEAM :

Programming & Development : Alexandra Zaïnal
Concept & original design : Baudouin d'Aumeries
Assistance for programming : Marc-Olivier Méhu
Technical & hardware support : Manuel Goepfert

Contact : metmap@orbifly.com




SOURCES & CREDITS :

   NOAA